createdAt,value
2018-08-17T00:01:30.781Z,18.91
2018-08-17T00:02:38.230Z,18.91
2018-08-17T00:03:45.282Z,18.86
2018-08-17T00:04:49.911Z,18.86
2018-08-17T00:05:54.527Z,18.86
2018-08-17T00:07:00.285Z,18.90
2018-08-17T00:08:05.168Z,18.89
2018-08-17T00:09:11.382Z,18.89
2018-08-17T00:10:16.142Z,18.77
2018-08-17T00:11:21.431Z,18.58
2018-08-17T00:12:28.810Z,18.48
2018-08-17T00:13:33.441Z,18.45
2018-08-17T00:14:41.006Z,18.39
2018-08-17T00:15:47.441Z,18.35
2018-08-17T00:16:53.494Z,18.15
2018-08-17T00:17:58.237Z,17.88
2018-08-17T00:19:03.179Z,17.71
2018-08-17T00:20:07.958Z,17.61
2018-08-17T00:21:13.312Z,17.50
2018-08-17T00:22:19.297Z,17.45
2018-08-17T00:23:24.834Z,17.40
2018-08-17T00:24:30.547Z,17.34
2018-08-17T00:25:36.095Z,17.39
2018-08-17T00:26:40.823Z,17.51
2018-08-17T00:27:47.421Z,17.64
2018-08-17T00:28:52.487Z,17.71
2018-08-17T00:29:58.363Z,17.84
2018-08-17T00:31:03.833Z,17.83
2018-08-17T00:32:08.519Z,17.83
2018-08-17T00:33:13.174Z,17.81
2018-08-17T00:34:17.838Z,17.75
2018-08-17T00:35:23.774Z,17.71
2018-08-17T00:36:30.133Z,17.67
2018-08-17T00:37:35.077Z,17.61
2018-08-17T00:38:39.658Z,17.60
2018-08-17T00:39:46.175Z,17.60
2018-08-17T00:40:50.833Z,17.50
2018-08-17T00:41:59.572Z,17.46
2018-08-17T00:43:04.210Z,17.40
2018-08-17T00:44:09.156Z,17.41
2018-08-17T00:45:13.878Z,17.29
2018-08-17T00:46:18.666Z,17.28
2018-08-17T00:47:23.356Z,17.38
2018-08-17T00:48:28.122Z,17.44
2018-08-17T00:49:34.265Z,17.40
2018-08-17T00:50:40.308Z,17.40
2018-08-17T00:51:45.330Z,17.42
2018-08-17T00:52:50.244Z,17.50
2018-08-17T00:53:55.224Z,17.55
2018-08-17T00:54:59.982Z,17.51
2018-08-17T00:56:04.735Z,17.56
2018-08-17T00:57:09.566Z,17.63
2018-08-17T00:58:15.042Z,17.58
2018-08-17T00:59:20.094Z,17.57
2018-08-17T01:00:26.467Z,17.64
2018-08-17T01:01:31.998Z,17.70
2018-08-17T01:02:37.828Z,17.73
2018-08-17T01:03:43.596Z,17.79
2018-08-17T01:04:48.350Z,17.82
2018-08-17T01:05:54.223Z,17.81
2018-08-17T01:06:59.047Z,17.75
2018-08-17T01:08:03.751Z,17.78
2018-08-17T01:09:10.020Z,17.71
2018-08-17T01:10:15.646Z,17.68
2018-08-17T01:11:21.198Z,17.66
2018-08-17T01:12:27.086Z,17.65
2018-08-17T01:13:31.735Z,17.67
2018-08-17T01:14:37.366Z,17.61
2018-08-17T01:15:42.174Z,17.67
2018-08-17T01:16:48.665Z,17.70
2018-08-17T01:17:55.007Z,17.78
2018-08-17T01:19:05.537Z,17.80
2018-08-17T01:20:12.321Z,17.82
2018-08-17T01:21:21.683Z,17.79
2018-08-17T01:22:27.118Z,17.81
2018-08-17T01:23:32.150Z,17.83
2018-08-17T01:24:36.980Z,17.84
2018-08-17T01:25:42.024Z,17.81
2018-08-17T01:26:49.511Z,17.82
2018-08-17T01:27:54.327Z,17.84
2018-08-17T01:29:02.421Z,17.88
2018-08-17T01:30:09.969Z,17.92
2018-08-17T01:31:14.796Z,17.94
2018-08-17T01:32:20.696Z,17.92
2018-08-17T01:33:25.839Z,17.82
2018-08-17T01:34:30.611Z,17.66
2018-08-17T01:35:35.352Z,17.59
2018-08-17T01:36:40.148Z,17.47
2018-08-17T01:37:44.957Z,17.49
2018-08-17T01:38:50.867Z,17.52
2018-08-17T01:39:55.811Z,17.59
2018-08-17T01:41:00.577Z,17.64
2018-08-17T01:42:05.375Z,17.64
2018-08-17T01:43:10.161Z,17.61
2018-08-17T01:44:15.994Z,17.62
2018-08-17T01:45:21.088Z,17.65
2018-08-17T01:46:25.824Z,17.56
2018-08-17T01:47:32.727Z,17.57
2018-08-17T01:48:38.338Z,17.57
2018-08-17T01:49:43.380Z,17.63
2018-08-17T01:50:48.134Z,17.68
2018-08-17T01:51:53.195Z,17.70
2018-08-17T01:52:58.179Z,17.71
2018-08-17T01:54:03.948Z,17.72
2018-08-17T01:55:09.987Z,17.71
2018-08-17T01:56:15.137Z,17.60
2018-08-17T01:57:21.248Z,17.59
2018-08-17T01:58:26.697Z,17.59
2018-08-17T01:59:31.936Z,17.58
2018-08-17T02:00:37.209Z,17.59
2018-08-17T02:01:42.588Z,17.59
2018-08-17T02:02:47.350Z,17.55
2018-08-17T02:03:52.123Z,17.54
2018-08-17T02:04:57.206Z,17.46
2018-08-17T02:06:02.028Z,17.38
2018-08-17T02:07:06.889Z,17.35
2018-08-17T02:08:11.713Z,17.37
2018-08-17T02:09:16.487Z,17.41
2018-08-17T02:10:21.310Z,17.42
2018-08-17T02:11:26.453Z,17.42
2018-08-17T02:12:31.268Z,17.44
2018-08-17T02:13:36.024Z,17.50
2018-08-17T02:14:40.895Z,17.51
2018-08-17T02:15:45.616Z,17.51
2018-08-17T02:16:50.386Z,17.53
2018-08-17T02:17:55.439Z,17.48
2018-08-17T02:19:00.187Z,17.45
2018-08-17T02:20:05.213Z,17.42
2018-08-17T02:21:10.127Z,17.36
2018-08-17T02:22:14.923Z,17.18
2018-08-17T02:23:21.088Z,17.08
2018-08-17T02:24:26.199Z,17.09
2018-08-17T02:25:30.949Z,17.11
2018-08-17T02:26:35.747Z,17.10
2018-08-17T02:27:41.436Z,17.13
2018-08-17T02:28:46.178Z,17.13
2018-08-17T02:29:51.037Z,17.00
2018-08-17T02:30:56.152Z,16.90
2018-08-17T02:32:00.910Z,16.90
2018-08-17T02:33:06.552Z,16.90
2018-08-17T02:34:13.049Z,16.94
2018-08-17T02:35:18.365Z,16.98
2018-08-17T02:36:22.998Z,16.90
2018-08-17T02:37:28.864Z,16.76
2018-08-17T02:38:33.638Z,16.73
2018-08-17T02:39:38.380Z,16.80
2018-08-17T02:40:43.137Z,16.54
2018-08-17T02:41:47.899Z,16.52
2018-08-17T02:42:52.613Z,16.63
2018-08-17T02:43:57.591Z,16.49
2018-08-17T02:45:03.093Z,16.50
2018-08-17T02:46:07.739Z,16.57
2018-08-17T02:47:12.418Z,16.52
2018-08-17T02:48:17.056Z,16.58
2018-08-17T02:49:21.765Z,16.67
2018-08-17T02:50:26.761Z,16.74
2018-08-17T02:51:31.452Z,16.66
2018-08-17T02:52:36.177Z,16.75
2018-08-17T02:53:40.846Z,16.83
2018-08-17T02:54:46.136Z,16.90
2018-08-17T02:55:50.783Z,16.95
2018-08-17T02:56:55.736Z,16.97
2018-08-17T02:58:00.491Z,16.99
2018-08-17T02:59:05.381Z,17.04
2018-08-17T03:00:10.240Z,17.04
2018-08-17T03:01:15.272Z,16.99
2018-08-17T03:02:20.118Z,17.00
2018-08-17T03:03:25.221Z,16.94
2018-08-17T03:04:30.329Z,16.79
2018-08-17T03:05:35.871Z,16.75
2018-08-17T03:06:40.664Z,16.58
2018-08-17T03:07:45.440Z,16.46
2018-08-17T03:08:50.965Z,16.48
2018-08-17T03:09:56.028Z,16.51
2018-08-17T03:11:00.814Z,16.51
2018-08-17T03:12:05.584Z,16.58
2018-08-17T03:13:10.452Z,16.54
2018-08-17T03:14:15.228Z,16.54
2018-08-17T03:15:20.029Z,16.63
2018-08-17T03:16:25.203Z,16.74
2018-08-17T03:17:30.131Z,16.74
2018-08-17T03:18:34.939Z,16.70
2018-08-17T03:19:39.802Z,16.69
2018-08-17T03:20:44.465Z,16.66
2018-08-17T03:21:49.122Z,16.70
2018-08-17T03:22:54.085Z,16.70
2018-08-17T03:23:58.732Z,16.60
2018-08-17T03:25:03.375Z,16.42
2018-08-17T03:26:08.488Z,16.33
2018-08-17T03:27:13.143Z,16.41
2018-08-17T03:28:17.857Z,16.47
2018-08-17T03:29:22.809Z,16.56
2018-08-17T03:30:27.521Z,16.53
2018-08-17T03:31:32.266Z,16.43
2018-08-17T03:32:36.932Z,16.26
2018-08-17T03:33:41.596Z,16.19
2018-08-17T03:34:46.280Z,16.13
2018-08-17T03:35:51.219Z,16.12
2018-08-17T03:36:55.917Z,16.05
2018-08-17T03:38:00.631Z,16.06
2018-08-17T03:39:07.151Z,16.10
2018-08-17T03:40:11.778Z,16.11
2018-08-17T03:41:17.765Z,16.12
2018-08-17T03:42:23.716Z,16.14
2018-08-17T03:43:29.324Z,16.13
2018-08-17T03:44:34.950Z,16.12
2018-08-17T03:45:39.591Z,16.20
2018-08-17T03:46:44.265Z,16.24
2018-08-17T03:47:49.103Z,16.27
2018-08-17T03:48:54.476Z,16.24
2018-08-17T03:49:59.392Z,16.21
2018-08-17T03:51:04.130Z,16.12
2018-08-17T03:52:08.793Z,16.03
2018-08-17T03:53:13.469Z,16.04
2018-08-17T03:54:18.154Z,16.06
2018-08-17T03:55:23.094Z,16.08
2018-08-17T03:56:27.800Z,16.09
2018-08-17T03:57:32.412Z,16.01
2018-08-17T03:58:37.084Z,15.89
2018-08-17T03:59:41.688Z,15.74
2018-08-17T04:00:46.351Z,15.71
2018-08-17T04:01:51.411Z,15.71
2018-08-17T04:02:56.088Z,15.74
2018-08-17T04:04:00.788Z,15.76
2018-08-17T04:05:05.873Z,15.74
2018-08-17T04:06:10.562Z,15.78
2018-08-17T04:07:15.343Z,15.79
2018-08-17T04:08:20.399Z,15.74
2018-08-17T04:09:25.172Z,15.73
2018-08-17T04:10:29.981Z,15.72
2018-08-17T04:11:35.597Z,15.74
2018-08-17T04:12:40.366Z,15.78
2018-08-17T04:13:45.146Z,15.81
2018-08-17T04:14:50.190Z,15.82
2018-08-17T04:15:54.921Z,15.75
2018-08-17T04:16:59.722Z,15.74
2018-08-17T04:18:06.247Z,15.70
2018-08-17T04:19:11.630Z,15.73
2018-08-17T04:20:16.700Z,15.76
2018-08-17T04:21:22.326Z,15.67
2018-08-17T04:22:30.524Z,15.57
2018-08-17T04:23:35.126Z,15.42
2018-08-17T04:24:39.742Z,15.41
2018-08-17T04:25:44.387Z,15.50
2018-08-17T04:26:49.035Z,15.59
2018-08-17T04:27:53.997Z,15.70
2018-08-17T04:28:58.638Z,15.79
2018-08-17T04:30:03.263Z,15.86
2018-08-17T04:31:07.903Z,15.86
2018-08-17T04:32:12.589Z,15.85
2018-08-17T04:33:17.197Z,15.77
2018-08-17T04:34:23.051Z,15.75
2018-08-17T04:35:27.734Z,15.75
2018-08-17T04:36:32.667Z,15.85
2018-08-17T04:37:37.284Z,15.93
2018-08-17T04:38:42.536Z,16.02
2018-08-17T04:39:47.228Z,16.11
2018-08-17T04:40:52.716Z,16.15
2018-08-17T04:41:58.867Z,16.00
2018-08-17T04:43:04.123Z,15.91
2018-08-17T04:44:09.044Z,15.89
2018-08-17T04:45:13.629Z,15.91
2018-08-17T04:46:18.247Z,15.87
2018-08-17T04:47:23.199Z,15.95
2018-08-17T04:48:27.797Z,16.08
2018-08-17T04:49:32.695Z,16.16
2018-08-17T04:50:37.344Z,16.18
2018-08-17T04:51:41.984Z,16.10
2018-08-17T04:52:46.616Z,15.92
2018-08-17T04:53:51.511Z,15.78
2018-08-17T04:54:56.705Z,15.83
2018-08-17T04:56:01.385Z,15.96
2018-08-17T04:57:06.104Z,16.07
2018-08-17T04:58:10.875Z,16.18
2018-08-17T04:59:16.543Z,16.29
2018-08-17T05:00:23.192Z,16.41
2018-08-17T05:01:27.992Z,16.49
2018-08-17T05:02:32.765Z,16.45
2018-08-17T05:03:37.575Z,16.07
2018-08-17T05:04:42.298Z,15.76
2018-08-17T05:05:47.386Z,15.70
2018-08-17T05:06:54.013Z,15.82
2018-08-17T05:07:58.654Z,15.96
2018-08-17T05:09:03.456Z,16.09
2018-08-17T05:10:08.840Z,16.17
2018-08-17T05:11:13.477Z,16.26
2018-08-17T05:12:18.118Z,16.37
2018-08-17T05:13:23.695Z,16.23
2018-08-17T05:14:28.307Z,16.23
2018-08-17T05:15:32.988Z,16.30
2018-08-17T05:16:37.701Z,16.13
2018-08-17T05:17:42.408Z,16.01
2018-08-17T05:18:47.214Z,16.06
2018-08-17T05:19:53.037Z,16.16
2018-08-17T05:20:57.865Z,16.20
2018-08-17T05:22:02.859Z,16.24
2018-08-17T05:23:09.115Z,16.20
2018-08-17T05:24:14.592Z,16.29
2018-08-17T05:25:24.341Z,16.39
2018-08-17T05:26:28.979Z,16.43
2018-08-17T05:27:33.593Z,16.48
2018-08-17T05:28:38.292Z,16.39
2018-08-17T05:29:42.920Z,16.34
2018-08-17T05:33:17.806Z,16.35
2018-08-17T05:34:23.232Z,16.47
2018-08-17T05:35:27.885Z,16.58
2018-08-17T05:36:32.515Z,16.69
2018-08-17T05:37:38.269Z,16.74
2018-08-17T05:38:44.156Z,16.76
2018-08-17T05:39:49.830Z,16.71
2018-08-17T05:40:56.155Z,16.74
2018-08-17T05:42:01.381Z,16.79
2018-08-17T05:43:06.102Z,16.78
2018-08-17T05:44:11.568Z,16.75
2018-08-17T05:45:16.552Z,16.85
2018-08-17T05:46:21.303Z,16.99
2018-08-17T05:47:27.081Z,17.10
2018-08-17T05:48:31.683Z,17.20
2018-08-17T05:49:37.616Z,17.30
2018-08-17T05:50:42.298Z,17.33
2018-08-17T05:51:47.200Z,17.36
2018-08-17T05:52:51.806Z,17.40
2018-08-17T05:53:56.536Z,17.48
2018-08-17T05:55:01.308Z,17.49
2018-08-17T05:56:06.147Z,17.50
2018-08-17T05:57:10.879Z,17.54
2018-08-17T05:58:17.356Z,17.57
2018-08-17T05:59:22.150Z,17.62
2018-08-17T06:00:27.570Z,17.55
2018-08-17T06:01:32.422Z,17.57
2018-08-17T06:02:37.298Z,17.67
2018-08-17T06:03:45.758Z,17.78
2018-08-17T06:04:51.532Z,17.85
2018-08-17T06:05:56.307Z,17.88
2018-08-17T06:07:01.055Z,17.94
2018-08-17T06:08:06.837Z,18.02
2018-08-17T06:09:11.683Z,17.95
2018-08-17T06:10:18.223Z,17.97
2018-08-17T06:11:23.351Z,18.05
2018-08-17T06:12:28.101Z,18.14
2018-08-17T06:13:32.828Z,18.26
2018-08-17T06:14:38.116Z,18.38
2018-08-17T06:15:45.884Z,18.33
2018-08-17T06:16:51.151Z,18.25
2018-08-17T06:17:56.657Z,18.18
2018-08-17T06:19:02.699Z,18.18
2018-08-17T06:20:07.993Z,18.20
2018-08-17T06:21:13.173Z,18.18
2018-08-17T06:22:21.228Z,18.23
2018-08-17T06:23:25.947Z,18.37
2018-08-17T06:24:31.587Z,18.52
2018-08-17T06:25:36.280Z,18.70
2018-08-17T06:26:41.345Z,18.86
2018-08-17T06:27:46.717Z,18.95
2018-08-17T06:28:52.374Z,19.04
2018-08-17T06:29:57.386Z,19.13
2018-08-17T06:31:02.872Z,19.17
2018-08-17T06:32:08.831Z,19.18
2018-08-17T06:33:13.828Z,19.25
2018-08-17T06:34:18.622Z,19.33
2018-08-17T06:35:23.477Z,19.41
2018-08-17T06:36:28.302Z,19.50
2018-08-17T06:37:34.289Z,19.57
2018-08-17T06:38:39.103Z,19.57
2018-08-17T06:39:44.864Z,19.44
2018-08-17T06:40:50.507Z,19.50
2018-08-17T06:41:55.331Z,19.62
2018-08-17T06:43:00.979Z,19.43
2018-08-17T06:44:06.762Z,19.54
2018-08-17T06:45:14.191Z,19.68
2018-08-17T06:46:18.888Z,19.74
2018-08-17T06:47:23.605Z,19.84
2018-08-17T06:48:28.389Z,19.80
2018-08-17T06:49:33.290Z,19.92
2018-08-17T06:50:39.253Z,20.03
2018-08-17T06:51:45.429Z,19.89
2018-08-17T06:52:50.152Z,19.87
2018-08-17T06:53:54.816Z,19.82
2018-08-17T06:55:00.461Z,19.57
2018-08-17T06:56:05.123Z,19.56
2018-08-17T06:57:10.287Z,19.49
2018-08-17T06:58:15.720Z,19.53
2018-08-17T06:59:20.441Z,19.57
2018-08-17T07:00:25.208Z,19.65
2018-08-17T07:01:31.471Z,19.82
2018-08-17T07:02:40.052Z,19.93
2018-08-17T07:03:46.225Z,20.03
2018-08-17T07:04:51.695Z,20.05
2018-08-17T07:05:56.919Z,20.09
2018-08-17T07:07:02.248Z,19.92
2018-08-17T07:08:08.062Z,19.99
2018-08-17T07:09:12.870Z,19.96
2018-08-17T07:10:17.784Z,20.08
2018-08-17T07:11:22.732Z,20.29
2018-08-17T07:12:27.371Z,20.20
2018-08-17T07:13:33.163Z,20.14
2018-08-17T07:14:38.506Z,20.21
2018-08-17T07:15:43.454Z,20.36
2018-08-17T07:16:48.613Z,20.47
2018-08-17T07:17:53.410Z,20.49
2018-08-17T07:19:01.148Z,20.53
2018-08-17T07:20:08.008Z,20.52
2018-08-17T07:21:12.814Z,20.47
2018-08-17T07:22:17.741Z,20.38
2018-08-17T07:23:22.864Z,20.34
2018-08-17T07:24:27.824Z,20.28
2018-08-17T07:25:32.637Z,20.14
2018-08-17T07:26:38.380Z,20.16
2018-08-17T07:27:43.795Z,20.17
2018-08-17T07:28:49.223Z,20.15
2018-08-17T07:29:55.352Z,20.10
2018-08-17T07:31:00.184Z,20.13
2018-08-17T07:32:06.387Z,20.25
2018-08-17T07:33:12.243Z,20.23
2018-08-17T07:34:17.066Z,20.21
2018-08-17T07:35:21.851Z,20.07
2018-08-17T07:36:27.622Z,19.95
2018-08-17T07:37:35.694Z,20.06
2018-08-17T07:38:41.032Z,20.22
2018-08-17T07:39:45.894Z,20.32
2018-08-17T07:40:50.784Z,20.47
2018-08-17T07:41:55.614Z,20.39
2018-08-17T07:43:03.224Z,20.57
2018-08-17T07:44:07.918Z,20.60
2018-08-17T07:45:13.392Z,20.61
2018-08-17T07:46:18.013Z,20.63
2018-08-17T07:47:24.220Z,20.76
2018-08-17T07:48:29.837Z,21.14
2018-08-17T07:49:35.342Z,21.29
2018-08-17T07:50:41.342Z,21.36
2018-08-17T07:51:48.792Z,21.34
2018-08-17T07:52:53.968Z,21.44
2018-08-17T07:53:58.776Z,21.51
2018-08-17T07:55:05.358Z,21.49
2018-08-17T07:56:11.303Z,21.57
2018-08-17T07:57:17.290Z,21.24
2018-08-17T07:58:22.012Z,21.17
2018-08-17T07:59:28.089Z,21.26
2018-08-17T08:00:32.726Z,20.84
2018-08-17T08:01:39.256Z,20.92
2018-08-17T08:02:45.699Z,21.14
2018-08-17T08:03:51.374Z,21.31
2018-08-17T08:04:57.732Z,21.43
2018-08-17T08:06:03.112Z,21.14
2018-08-17T08:07:07.793Z,21.34
2018-08-17T08:08:13.306Z,21.66
2018-08-17T08:09:21.441Z,21.66
2018-08-17T08:10:26.093Z,21.54
2018-08-17T08:11:32.348Z,21.84
2018-08-17T08:12:40.821Z,22.14
2018-08-17T08:13:48.973Z,22.39
2018-08-17T08:14:53.865Z,22.79
2018-08-17T08:16:00.274Z,22.98
2018-08-17T08:17:05.078Z,23.33
2018-08-17T08:18:10.104Z,23.18
2018-08-17T08:19:16.349Z,23.31
2018-08-17T08:20:28.317Z,23.26
2018-08-17T08:21:33.091Z,23.13
2018-08-17T08:22:38.415Z,23.21
2018-08-17T08:23:43.229Z,23.00
2018-08-17T08:24:48.669Z,23.16
2018-08-17T08:25:54.056Z,23.04
2018-08-17T08:27:00.377Z,23.09
2018-08-17T08:28:06.336Z,22.69
2018-08-17T08:29:11.309Z,22.58
2018-08-17T08:30:16.512Z,22.73
2018-08-17T08:31:21.376Z,22.67
2018-08-17T08:32:26.325Z,22.43
2018-08-17T08:33:31.955Z,22.51
2018-08-17T08:34:38.306Z,22.45
2018-08-17T08:35:44.598Z,22.24
2018-08-17T08:36:50.492Z,21.96
2018-08-17T08:37:55.806Z,21.95
2018-08-17T08:39:00.527Z,22.19
2018-08-17T08:40:05.474Z,22.21
2018-08-17T08:41:12.272Z,22.53
2018-08-17T08:42:16.913Z,22.60
2018-08-17T08:43:22.176Z,22.55
2018-08-17T08:44:28.190Z,22.82
2018-08-17T08:45:34.415Z,22.91
2018-08-17T08:46:39.567Z,23.06
2018-08-17T08:47:45.148Z,23.31
2018-08-17T08:48:49.875Z,23.39
2018-08-17T08:49:57.245Z,23.22
2018-08-17T08:51:02.734Z,23.31
2018-08-17T08:52:08.545Z,23.13
2018-08-17T08:53:14.834Z,22.50
2018-08-17T08:54:20.473Z,22.11
2018-08-17T08:55:25.140Z,21.71
2018-08-17T08:56:32.817Z,21.68
2018-08-17T08:57:38.669Z,21.33
2018-08-17T08:58:43.470Z,21.22
2018-08-17T08:59:50.101Z,21.14
2018-08-17T09:00:55.742Z,20.92
2018-08-17T09:02:02.036Z,20.64
2018-08-17T09:03:08.191Z,20.58
2018-08-17T09:04:13.706Z,20.49
2018-08-17T09:05:19.123Z,20.43
2018-08-17T09:06:24.233Z,20.02
2018-08-17T09:07:31.053Z,20.07
2018-08-17T09:08:36.354Z,20.22
2018-08-17T09:09:42.394Z,20.45
2018-08-17T09:10:47.102Z,20.76
2018-08-17T09:11:56.843Z,20.74
2018-08-17T09:13:04.506Z,21.05
2018-08-17T09:14:09.450Z,21.16
2018-08-17T09:15:14.398Z,20.95
2018-08-17T09:16:22.109Z,20.92
2018-08-17T09:17:27.369Z,20.99
2018-08-17T09:18:32.978Z,21.02
2018-08-17T09:19:38.295Z,21.06
2018-08-17T09:20:44.947Z,21.07
2018-08-17T09:21:50.269Z,21.17
2018-08-17T09:22:55.780Z,21.15
2018-08-17T09:24:02.227Z,21.21
2018-08-17T09:25:07.667Z,21.09
2018-08-17T09:26:13.792Z,21.12
2018-08-17T09:27:21.964Z,20.96
2018-08-17T09:28:26.780Z,21.04
2018-08-17T09:29:32.002Z,21.03
2018-08-17T09:30:37.218Z,21.02
2018-08-17T09:31:42.820Z,21.15
2018-08-17T09:32:49.647Z,21.26
2018-08-17T09:33:57.695Z,21.61
2018-08-17T09:35:03.428Z,21.90
2018-08-17T09:36:08.089Z,22.22
2018-08-17T09:37:15.549Z,22.56
2018-08-17T09:38:20.968Z,22.60
2018-08-17T09:39:26.677Z,22.33
2018-08-17T09:40:33.523Z,22.05
2018-08-17T09:41:39.143Z,22.21
2018-08-17T09:42:43.828Z,22.53
2018-08-17T09:43:49.320Z,22.61
2018-08-17T09:44:56.360Z,22.72
2018-08-17T09:46:01.310Z,22.76
2018-08-17T09:47:06.928Z,22.73
2018-08-17T09:48:11.611Z,22.74
2018-08-17T09:49:16.292Z,22.98
2018-08-17T09:50:21.216Z,23.31
2018-08-17T09:51:27.136Z,23.17
2018-08-17T09:52:33.279Z,23.30
2018-08-17T09:53:39.342Z,22.98
2018-08-17T09:54:44.371Z,22.80
2018-08-17T09:55:50.757Z,22.80
2018-08-17T09:56:55.716Z,22.91
2018-08-17T09:58:02.712Z,22.65
2018-08-17T09:59:07.725Z,22.01
2018-08-17T10:00:14.342Z,22.14
2018-08-17T10:01:24.247Z,22.19
2018-08-17T10:02:35.493Z,22.18
2018-08-17T10:03:44.489Z,22.32
2018-08-17T10:04:57.166Z,22.39
2018-08-17T10:06:07.787Z,22.41
2018-08-17T10:07:18.389Z,22.96
2018-08-17T10:08:38.474Z,23.42
2018-08-17T10:09:50.076Z,23.76
2018-08-17T10:10:56.753Z,23.09
2018-08-17T10:12:02.721Z,22.66
2018-08-17T10:13:10.074Z,22.76
2018-08-17T10:14:15.700Z,23.04
2018-08-17T10:15:20.704Z,23.50
2018-08-17T10:16:27.431Z,23.87
2018-08-17T10:17:34.652Z,23.91
2018-08-17T10:18:45.866Z,23.69
2018-08-17T10:19:51.074Z,23.19
2018-08-17T10:20:56.485Z,22.92
2018-08-17T10:22:01.498Z,22.88
2018-08-17T10:23:09.941Z,22.75
2018-08-17T10:24:14.633Z,23.17
2018-08-17T10:25:22.056Z,23.29
2018-08-17T10:26:26.703Z,23.76
2018-08-17T10:27:33.060Z,24.22
2018-08-17T10:28:38.376Z,24.41
2018-08-17T10:29:45.092Z,24.65
2018-08-17T10:32:23.622Z,24.83
2018-08-17T10:33:29.133Z,24.97
2018-08-17T10:34:33.905Z,24.89
2018-08-17T10:35:43.598Z,25.03
2018-08-17T10:36:48.667Z,25.24
2018-08-17T10:37:54.978Z,25.56
2018-08-17T10:39:00.668Z,25.69
2018-08-17T10:40:05.655Z,25.69
2018-08-17T10:41:11.321Z,25.84
2018-08-17T10:42:15.987Z,25.77
2018-08-17T10:43:21.512Z,25.54
2018-08-17T10:44:26.232Z,25.59
2018-08-17T10:45:31.443Z,25.73
2018-08-17T10:46:36.396Z,25.75
2018-08-17T10:47:41.196Z,25.89
2018-08-17T10:48:47.652Z,25.96
2018-08-17T10:49:53.229Z,25.91
2018-08-17T10:50:59.960Z,25.93
2018-08-17T10:52:06.319Z,25.07
2018-08-17T10:53:11.540Z,25.16
2018-08-17T10:54:18.051Z,25.32
2018-08-17T10:55:24.536Z,25.03
2018-08-17T10:56:29.314Z,25.34
2018-08-17T10:57:34.438Z,25.28
2018-08-17T10:58:43.191Z,25.01
2018-08-17T10:59:49.961Z,25.42
2018-08-17T11:00:55.201Z,25.77
2018-08-17T11:02:00.432Z,26.14
2018-08-17T11:03:05.212Z,26.21
2018-08-17T11:04:10.002Z,26.42
2018-08-17T11:05:22.801Z,26.28
2018-08-17T11:06:27.778Z,26.25
2018-08-17T11:07:40.951Z,26.39
2018-08-17T11:08:45.980Z,26.56
2018-08-17T11:09:51.138Z,26.28
2018-08-17T11:11:00.131Z,26.06
2018-08-17T11:12:05.517Z,26.41
2018-08-17T11:13:10.385Z,26.76
2018-08-17T11:14:16.943Z,26.45
2018-08-17T11:15:23.198Z,26.70
2018-08-17T11:16:28.814Z,26.86
2018-08-17T11:17:34.835Z,26.99
2018-08-17T11:18:41.806Z,26.90
2018-08-17T11:19:49.144Z,27.26
2018-08-17T11:20:54.574Z,27.31
2018-08-17T11:22:03.013Z,27.20
2018-08-17T11:23:07.832Z,27.29
2018-08-17T11:24:13.379Z,27.60
2018-08-17T11:25:22.094Z,27.87
2018-08-17T11:27:40.836Z,28.12
2018-08-17T11:28:47.111Z,28.16
2018-08-17T11:29:51.740Z,28.33
2018-08-17T11:30:56.480Z,28.56
2018-08-17T11:32:01.574Z,28.47
2018-08-17T11:33:06.465Z,28.44
2018-08-17T11:34:11.925Z,28.17
2018-08-17T11:35:19.923Z,28.24
2018-08-17T11:36:25.232Z,28.57
2018-08-17T11:37:36.668Z,28.51
2018-08-17T11:38:42.521Z,28.67
2018-08-17T11:39:51.913Z,28.65
2018-08-17T11:40:59.904Z,29.18
2018-08-17T11:42:05.164Z,29.53
2018-08-17T11:43:09.831Z,29.97
2018-08-17T11:44:16.744Z,30.62
2018-08-17T11:45:23.593Z,31.07
2018-08-17T11:46:32.364Z,30.19
2018-08-17T11:47:37.164Z,30.54
2018-08-17T11:48:41.801Z,30.78
2018-08-17T11:49:46.609Z,30.97
2018-08-17T11:50:52.643Z,31.35
2018-08-17T11:51:57.456Z,31.59
2018-08-17T11:53:02.438Z,31.16
2018-08-17T11:54:07.674Z,29.44
2018-08-17T11:55:12.786Z,29.95
2018-08-17T11:56:19.399Z,30.89
2018-08-17T11:57:24.510Z,31.64
2018-08-17T11:58:31.069Z,31.94
2018-08-17T11:59:37.486Z,31.81
2018-08-17T12:00:44.340Z,31.97
2018-08-17T12:01:51.299Z,31.82
2018-08-17T12:02:57.624Z,32.02
2018-08-17T12:04:02.571Z,32.26
2018-08-17T12:05:09.369Z,32.28
2018-08-17T12:06:15.305Z,32.38
2018-08-17T12:07:22.692Z,32.46
2018-08-17T12:08:30.738Z,32.61
2018-08-17T12:09:37.293Z,32.87
2018-08-17T12:10:44.669Z,33.02
2018-08-17T12:11:52.772Z,32.72
2018-08-17T12:13:05.543Z,32.46
2018-08-17T12:14:12.336Z,32.02
2018-08-17T12:15:19.195Z,31.61
2018-08-17T12:16:23.841Z,31.28
2018-08-17T12:17:30.867Z,30.41
2018-08-17T12:18:36.435Z,30.12
2018-08-17T12:19:45.786Z,29.33
2018-08-17T12:20:51.033Z,29.40
2018-08-17T12:21:56.158Z,29.07
2018-08-17T12:23:02.741Z,28.37
2018-08-17T12:24:09.822Z,28.94
2018-08-17T12:25:15.317Z,29.85
2018-08-17T12:26:20.837Z,30.44
2018-08-17T12:27:27.398Z,30.99
2018-08-17T12:28:36.160Z,31.17
2018-08-17T12:29:44.944Z,30.66
2018-08-17T12:30:50.578Z,30.47
2018-08-17T12:31:57.133Z,30.59
2018-08-17T12:33:01.991Z,30.52
2018-08-17T12:34:08.129Z,30.37
2018-08-17T12:35:13.176Z,30.19
2018-08-17T12:36:18.161Z,30.18
2018-08-17T12:37:23.058Z,29.81
2018-08-17T12:38:30.658Z,29.24
2018-08-17T12:39:36.779Z,28.99
2018-08-17T12:40:47.389Z,29.00
2018-08-17T12:41:55.493Z,29.34
2018-08-17T12:43:00.260Z,29.29
2018-08-17T12:44:13.424Z,28.78
2018-08-17T12:45:24.427Z,28.78
2018-08-17T12:46:29.227Z,28.71
2018-08-17T12:47:34.014Z,28.95
2018-08-17T12:48:40.356Z,29.00
2018-08-17T12:49:45.035Z,28.67
2018-08-17T12:50:50.258Z,28.77
2018-08-17T12:51:54.958Z,28.61
2018-08-17T12:53:00.569Z,28.82
2018-08-17T12:54:06.490Z,29.54
2018-08-17T12:55:11.272Z,30.21
2018-08-17T12:56:16.929Z,29.75
2018-08-17T12:57:22.355Z,29.52
2018-08-17T12:58:27.790Z,30.08
2018-08-17T12:59:33.214Z,30.84
2018-08-17T13:00:38.243Z,31.34
2018-08-17T13:01:45.063Z,31.66
2018-08-17T13:02:50.632Z,31.51
2018-08-17T13:03:55.728Z,30.38
2018-08-17T13:05:03.294Z,29.27
2018-08-17T13:06:08.668Z,29.38
2018-08-17T13:07:19.532Z,29.05
2018-08-17T13:08:25.072Z,28.78
2018-08-17T13:09:32.460Z,28.89
2018-08-17T13:10:37.134Z,29.42
2018-08-17T13:11:46.745Z,29.75
2018-08-17T13:12:58.854Z,29.36
2018-08-17T13:14:09.556Z,29.42
2018-08-17T13:15:15.696Z,29.50
2018-08-17T13:16:20.425Z,29.90
2018-08-17T13:17:31.487Z,29.45
2018-08-17T13:18:37.505Z,30.02
2018-08-17T13:19:44.730Z,30.58
2018-08-17T13:20:49.325Z,30.79
2018-08-17T13:21:55.254Z,31.07
2018-08-17T13:23:01.677Z,31.16
2018-08-17T13:24:07.256Z,30.09
2018-08-17T13:25:11.988Z,29.67
2018-08-17T13:26:16.647Z,29.73
2018-08-17T13:27:23.253Z,30.87
2018-08-17T13:28:30.941Z,31.41
2018-08-17T13:29:35.548Z,30.12
2018-08-17T13:30:42.070Z,28.74
2018-08-17T13:31:49.169Z,28.31
2018-08-17T13:32:53.773Z,28.36
2018-08-17T13:33:58.456Z,28.84
2018-08-17T13:35:04.452Z,28.78
2018-08-17T13:36:10.295Z,28.61
2018-08-17T13:37:15.363Z,28.68
2018-08-17T13:38:20.774Z,29.03
2018-08-17T13:39:26.271Z,28.57
2018-08-17T13:40:32.370Z,28.05
2018-08-17T13:41:37.169Z,28.02
2018-08-17T13:42:41.858Z,28.18
2018-08-17T13:43:51.317Z,28.45
2018-08-17T13:45:03.142Z,28.30
2018-08-17T13:46:08.777Z,28.24
2018-08-17T13:47:13.704Z,27.55
2018-08-17T13:48:18.289Z,27.25
2018-08-17T13:49:26.932Z,27.13
2018-08-17T13:50:35.707Z,27.28
2018-08-17T13:51:42.009Z,27.55
2018-08-17T13:52:49.611Z,27.06
2018-08-17T13:53:55.128Z,26.64
2018-08-17T13:54:59.784Z,26.34
2018-08-17T13:56:04.830Z,26.73
2018-08-17T13:57:09.976Z,27.11
2018-08-17T13:58:14.624Z,27.24
2018-08-17T13:59:19.286Z,27.39
2018-08-17T14:00:27.619Z,27.50
2018-08-17T14:01:34.337Z,28.02
2018-08-17T14:02:41.396Z,27.86
2018-08-17T14:03:47.317Z,27.48
2018-08-17T14:04:52.779Z,27.26
2018-08-17T14:05:58.099Z,27.18
2018-08-17T14:07:03.841Z,27.24
2018-08-17T14:08:08.547Z,26.94
2018-08-17T14:09:13.444Z,27.01
2018-08-17T14:10:19.564Z,26.81
2018-08-17T14:11:25.458Z,26.95
2018-08-17T14:12:31.478Z,27.03